| time (UTC) | temp C | wind direction | speed KPH | gust KPH | rain 1hr cm | rain 24hr cm | rain mn cm | humidity % | barometer mb |
| 20260504081052 | 11 | 220 | 3.2 | 9.7 | 0.00 | 0.00 | 0.00 | 77 | 1009.6 |
| 20260504080552 | 10 | 171 | 3.2 | 9.7 | 0.00 | 0.00 | 0.00 | 77 | 1009.4 |
| 20260504050553 | 12 | 0 | 0.0 | 6.4 | 0.00 | 0.00 | 0.00 | 68 | 1010.7 |
| 20260504045552 | 12 | 184 | 0.0 | 8.0 | 0.00 | 0.00 | 0.00 | 67 | 1010.8 |
| 20260504045052 | 12 | 176 | 1.6 | 8.0 | 0.00 | 0.00 | 0.00 | 67 | 1010.8 |
| 20260504044602 | 12 | 186 | 1.6 | 11.3 | 0.00 | 0.00 | 0.00 | 67 | 1010.9 |
| 20260504044053 | 12 | 137 | 1.6 | 11.3 | 0.00 | 0.00 | 0.00 | 67 | 1010.9 |
| 20260504043553 | 12 | 0 | 4.8 | 11.3 | 0.00 | 0.00 | 0.00 | 66 | 1010.8 |
| 20260504043100 | 12 | 190 | 3.2 | 8.0 | 0.00 | 0.00 | 0.00 | 66 | 1011.0 |
| 20260504042553 | 12 | 191 | 3.2 | 6.4 | 0.00 | 0.00 | 0.00 | 66 | 1011.0 |
| 20260504042053 | 13 | 174 | 1.6 | 9.7 | 0.00 | 0.00 | 0.00 | 65 | 1011.1 |
| 20260504041555 | 13 | 191 | 3.2 | 9.7 | 0.00 | 0.00 | 0.00 | 64 | 1011.1 |
| 20260504041052 | 13 | 184 | 1.6 | 9.7 | 0.00 | 0.00 | 0.00 | 64 | 1011.2 |
| 20260504040553 | 13 | 184 | 3.2 | 14.5 | 0.00 | 0.00 | 0.00 | 64 | 1011.2 |
| 20260504040107 | 13 | 184 | 3.2 | 14.5 | 0.00 | 0.00 | 0.00 | 63 | 1011.1 |
| 20260504035555 | 13 | 165 | 4.8 | 14.5 | 0.00 | 0.00 | 0.00 | 64 | 1011.2 |
| 20260504035053 | 13 | 164 | 4.8 | 14.5 | 0.00 | 0.00 | 0.00 | 64 | 1011.3 |
| 20260504034627 | 13 | 191 | 4.8 | 12.9 | 0.00 | 0.00 | 0.00 | 63 | 1011.3 |
| 20260504034052 | 13 | 199 | 4.8 | 12.9 | 0.00 | 0.00 | 0.00 | 63 | 1011.4 |
| 20260504033554 | 13 | 194 | 3.2 | 9.7 | 0.00 | 0.00 | 0.00 | 64 | 1011.4 |
| 20260504033054 | 13 | 178 | 3.2 | 12.9 | 0.00 | 0.00 | 0.00 | 63 | 1011.5 |
| 20260504032552 | 13 | 172 | 4.8 | 12.9 | 0.00 | 0.00 | 0.00 | 63 | 1011.5 |
| 20260504032054 | 13 | 198 | 3.2 | 12.9 | 0.00 | 0.00 | 0.00 | 63 | 1011.6 |
| 20260504031551 | 13 | 179 | 4.8 | 14.5 | 0.00 | 0.00 | 0.00 | 62 | 1011.6 |
| 20260504031053 | 13 | 165 | 4.8 | 14.5 | 0.00 | 0.00 | 0.00 | 62 | 1011.6 |
| 20260504030552 | 13 | 191 | 4.8 | 12.9 | 0.00 | 0.00 | 0.00 | 62 | 1011.6 |
| 20260504030118 | 13 | 181 | 6.4 | 12.9 | 0.00 | 0.00 | 0.00 | 61 | 1011.7 |
| 20260504025552 | 13 | 177 | 6.4 | 14.5 | 0.00 | 0.00 | 0.00 | 61 | 1011.7 |
| 20260504025052 | 13 | 185 | 4.8 | 14.5 | 0.00 | 0.00 | 0.00 | 61 | 1011.8 |
| 20260504024600 | 13 | 191 | 4.8 | 14.5 | 0.00 | 0.00 | 0.00 | 62 | 1011.7 |
| 20260504024052 | 13 | 176 | 6.4 | 12.9 | 0.00 | 0.00 | 0.00 | 62 | 1011.7 |
| 20260504023553 | 13 | 164 | 3.2 | 9.7 | 0.00 | 0.00 | 0.00 | 62 | 1011.6 |
| 20260504023057 | 13 | 200 | 4.8 | 14.5 | 0.00 | 0.00 | 0.00 | 62 | 1011.6 |
| 20260504022553 | 13 | 186 | 4.8 | 14.5 | 0.00 | 0.00 | 0.00 | 62 | 1011.4 |
| 20260504022052 | 13 | 159 | 4.8 | 14.5 | 0.00 | 0.00 | 0.00 | 62 | 1011.5 |
| 20260504021558 | 13 | 179 | 3.2 | 11.3 | 0.00 | 0.00 | 0.00 | 62 | 1011.5 |
| 20260504021054 | 13 | 175 | 4.8 | 11.3 | 0.00 | 0.00 | 0.00 | 62 | 1011.5 |
| 20260504020552 | 14 | 176 | 4.8 | 12.9 | 0.00 | 0.00 | 0.00 | 61 | 1011.5 |
| 20260504020105 | 14 | 173 | 4.8 | 12.9 | 0.00 | 0.00 | 0.00 | 61 | 1011.6 |
| 20260504015553 | 14 | 184 | 1.6 | 11.3 | 0.00 | 0.00 | 0.00 | 61 | 1011.5 |
| 20260504015052 | 14 | 160 | 3.2 | 11.3 | 0.00 | 0.00 | 0.00 | 61 | 1011.5 |
| 20260504014603 | 14 | 174 | 1.6 | 19.3 | 0.00 | 0.00 | 0.00 | 60 | 1011.6 |
| 20260504014053 | 14 | 179 | 4.8 | 19.3 | 0.00 | 0.00 | 0.00 | 61 | 1011.7 |
| 20260504013552 | 14 | 160 | 4.8 | 16.1 | 0.00 | 0.00 | 0.00 | 61 | 1011.6 |
| 20260504013058 | 14 | 167 | 3.2 | 12.9 | 0.00 | 0.00 | 0.00 | 60 | 1011.5 |
| 20260504012553 | 14 | 212 | 4.8 | 12.9 | 0.00 | 0.00 | 0.00 | 61 | 1011.5 |
| 20260504012053 | 14 | 184 | 4.8 | 12.9 | 0.00 | 0.00 | 0.00 | 59 | 1011.6 |
| 20260504011553 | 14 | 222 | 1.6 | 11.3 | 0.00 | 0.00 | 0.00 | 60 | 1011.4 |
| 20260504011052 | 15 | 169 | 3.2 | 14.5 | 0.00 | 0.00 | 0.00 | 61 | 1011.4 |
| 20260504010552 | 15 | 169 | 4.8 | 14.5 | 0.00 | 0.00 | 0.00 | 60 | 1011.3 |
| 20260504010055 | 15 | 190 | 6.4 | 16.1 | 0.00 | 0.00 | 0.00 | 59 | 1011.3 |
| 20260504005552 | 15 | 171 | 8.0 | 25.7 | 0.00 | 0.00 | 0.00 | 59 | 1011.3 |
| 20260504005055 | 15 | 173 | 6.4 | 25.7 | 0.00 | 0.00 | 0.00 | 59 | 1011.2 |
| 20260504004555 | 15 | 137 | 6.4 | 25.7 | 0.00 | 0.00 | 0.00 | 59 | 1011.2 |
| 20260504004053 | 15 | 182 | 6.4 | 16.1 | 0.00 | 0.00 | 0.00 | 58 | 1011.3 |
| 20260504003552 | 15 | 176 | 8.0 | 12.9 | 0.00 | 0.00 | 0.00 | 57 | 1011.5 |
| 20260504003155 | 15 | 173 | 4.8 | 11.3 | 0.00 | 0.00 | 0.00 | 57 | 1011.8 |
| 20260504002552 | 15 | 178 | 6.4 | 11.3 | 0.00 | 0.00 | 0.00 | 56 | 1012.2 |
| 20260504002053 | 15 | 169 | 4.8 | 17.7 | 0.00 | 0.00 | 0.00 | 55 | 1012.4 |
| 20260504001605 | 15 | 187 | 6.4 | 17.7 | 0.00 | 0.00 | 0.00 | 55 | 1012.3 |
| 20260504001053 | 15 | 181 | 3.2 | 11.3 | 0.00 | 0.00 | 0.00 | 56 | 1012.2 |
| 20260504000552 | 15 | 158 | 4.8 | 11.3 | 0.00 | 0.00 | 0.00 | 55 | 1012.2 |
| 20260504000058 | 15 | 198 | 4.8 | 11.3 | 0.00 | 0.00 | 0.00 | 55 | 1012.1 |
| 20260503235554 | 15 | 192 | 3.2 | 6.4 | 0.00 | 0.00 | 0.00 | 55 | 1012.2 |
| 20260503235053 | 15 | 216 | 1.6 | 6.4 | 0.00 | 0.00 | 0.00 | 56 | 1012.2 |
| 20260503234556 | 16 | 0 | 0.0 | 6.4 | 0.00 | 0.00 | 0.00 | 59 | 1012.4 |
| 20260503234053 | 16 | 0 | 0.0 | 3.2 | 0.00 | 0.00 | 0.00 | 56 | 1012.6 |
| 20260503233553 | 16 | 0 | 0.0 | 14.5 | 0.00 | 0.00 | 0.00 | 56 | 1012.7 |
| 20260503233150 | 16 | 0 | 0.0 | 14.5 | 0.00 | 0.00 | 0.00 | 55 | 1012.6 |
| 20260503232552 | 16 | 198 | 4.8 | 14.5 | 0.00 | 0.00 | 0.00 | 54 | 1012.6 |
| 20260503232052 | 16 | 190 | 1.6 | 14.5 | 0.00 | 0.00 | 0.00 | 55 | 1012.2 |
| 20260503231555 | 16 | 207 | 4.8 | 14.5 | 0.00 | 0.00 | 0.00 | 53 | 1011.9 |
| 20260503231052 | 16 | 184 | 4.8 | 17.7 | 0.00 | 0.00 | 0.00 | 53 | 1011.9 |
| 20260503230553 | 16 | 175 | 8.0 | 20.9 | 0.00 | 0.00 | 0.00 | 53 | 1012.0 |
| 20260503230058 | 16 | 181 | 6.4 | 24.1 | 0.00 | 0.00 | 0.00 | 53 | 1012.0 |
| 20260503225552 | 16 | 213 | 4.8 | 24.1 | 0.00 | 0.00 | 0.00 | 53 | 1012.0 |
| 20260503225057 | 16 | 213 | 11.3 | 24.1 | 0.00 | 0.00 | 0.00 | 53 | 1012.1 |
| 20260503224553 | 16 | 207 | 8.0 | 20.9 | 0.00 | 0.00 | 0.00 | 53 | 1012.2 |
| 20260503224053 | 16 | 0 | 4.8 | 20.9 | 0.00 | 0.00 | 0.00 | 53 | 1012.3 |
| 20260503223553 | 16 | 192 | 8.0 | 20.9 | 0.00 | 0.00 | 0.00 | 51 | 1012.3 |
| 20260503223057 | 16 | 195 | 9.7 | 20.9 | 0.00 | 0.00 | 0.00 | 51 | 1012.3 |
| 20260503222552 | 16 | 191 | 3.2 | 14.5 | 0.00 | 0.00 | 0.00 | 52 | 1012.3 |
| 20260503222052 | 16 | 201 | 6.4 | 19.3 | 0.00 | 0.00 | 0.00 | 52 | 1012.2 |
| 20260503221559 | 16 | 180 | 6.4 | 19.3 | 0.00 | 0.00 | 0.00 | 53 | 1012.2 |
| 20260503221053 | 16 | 0 | 3.2 | 20.9 | 0.00 | 0.00 | 0.00 | 53 | 1012.1 |
| 20260503220553 | 16 | 158 | 3.2 | 20.9 | 0.00 | 0.00 | 0.00 | 50 | 1012.5 |
| 20260503220058 | 16 | 221 | 6.4 | 20.9 | 0.00 | 0.00 | 0.00 | 50 | 1012.3 |
| 20260503215553 | 16 | 174 | 9.7 | 25.7 | 0.00 | 0.00 | 0.00 | 51 | 1012.3 |
| 20260503215052 | 16 | 0 | 8.0 | 25.7 | 0.00 | 0.00 | 0.00 | 52 | 1012.3 |
| 20260503214601 | 16 | 164 | 9.7 | 17.7 | 0.00 | 0.00 | 0.00 | 52 | 1012.4 |
| 20260503214052 | 16 | 187 | 6.4 | 22.5 | 0.00 | 0.00 | 0.00 | 51 | 1012.5 |
| 20260503213552 | 16 | 265 | 9.7 | 22.5 | 0.00 | 0.00 | 0.00 | 48 | 1012.8 |
| 20260503213056 | 16 | 165 | 9.7 | 24.1 | 0.00 | 0.00 | 0.00 | 50 | 1012.8 |
| 20260503212552 | 16 | 176 | 6.4 | 24.1 | 0.00 | 0.00 | 0.00 | 51 | 1012.8 |
| 20260503212052 | 16 | 199 | 9.7 | 24.1 | 0.00 | 0.00 | 0.00 | 49 | 1013.0 |
| 20260503211556 | 16 | 143 | 9.7 | 22.5 | 0.00 | 0.00 | 0.00 | 49 | 1013.0 |
| 20260503211054 | 16 | 207 | 4.8 | 17.7 | 0.00 | 0.00 | 0.00 | 53 | 1013.1 |
| 20260503210555 | 16 | 146 | 6.4 | 16.1 | 0.00 | 0.00 | 0.00 | 49 | 1013.4 |
| 20260503210053 | 16 | 208 | 4.8 | 16.1 | 0.00 | 0.00 | 0.00 | 50 | 1013.6 |
| 20260503205553 | 16 | 0 | 1.6 | 19.3 | 0.00 | 0.00 | 0.00 | 51 | 1013.6 |
| 20260503205053 | 16 | 179 | 4.8 | 19.3 | 0.00 | 0.00 | 0.00 | 50 | 1014.1 |
| 20260503204559 | 16 | 0 | 6.4 | 17.7 | 0.00 | 0.00 | 0.00 | 50 | 1014.3 |
| 20260503204054 | 16 | 158 | 4.8 | 17.7 | 0.00 | 0.00 | 0.00 | 49 | 1014.4 |
| 20260503203552 | 16 | 217 | 3.2 | 19.3 | 0.00 | 0.00 | 0.00 | 50 | 1014.7 |
| 20260503203053 | 16 | 204 | 3.2 | 19.3 | 0.00 | 0.00 | 0.00 | 51 | 1014.7 |
| 20260503202553 | 16 | 199 | 6.4 | 20.9 | 0.00 | 0.00 | 0.00 | 48 | 1014.8 |
| 20260503202055 | 16 | 248 | 9.7 | 20.9 | 0.00 | 0.00 | 0.00 | 50 | 1015.0 |
| 20260503201616 | 17 | 174 | 4.8 | 20.9 | 0.00 | 0.00 | 0.00 | 50 | 1014.8 |
| 20260503201052 | 17 | 183 | 6.4 | 20.9 | 0.00 | 0.00 | 0.00 | 48 | 1014.7 |
| 20260503200554 | 17 | 211 | 4.8 | 22.5 | 0.00 | 0.00 | 0.00 | 47 | 1014.7 |
| 20260503200054 | 17 | 207 | 12.9 | 22.5 | 0.00 | 0.00 | 0.00 | 46 | 1014.7 |
| 20260503195553 | 17 | 205 | 3.2 | 19.3 | 0.00 | 0.00 | 0.00 | 48 | 1014.6 |
| 20260503195052 | 17 | 214 | 4.8 | 22.5 | 0.00 | 0.00 | 0.00 | 46 | 1014.9 |
| 20260503194601 | 17 | 220 | 12.9 | 22.5 | 0.00 | 0.00 | 0.00 | 47 | 1014.9 |
| 20260503194052 | 17 | 188 | 8.0 | 22.5 | 0.00 | 0.00 | 0.00 | 48 | 1014.8 |
| 20260503193552 | 17 | 248 | 3.2 | 20.9 | 0.00 | 0.00 | 0.00 | 47 | 1015.1 |
| 20260503193108 | 17 | 174 | 9.7 | 20.9 | 0.00 | 0.00 | 0.00 | 47 | 1015.2 |
| 20260503192553 | 17 | 202 | 3.2 | 20.9 | 0.00 | 0.00 | 0.00 | 50 | 1015.3 |
| 20260503192052 | 17 | 188 | 8.0 | 20.9 | 0.00 | 0.00 | 0.00 | 48 | 1015.3 |
| 20260503191559 | 17 | 182 | 6.4 | 19.3 | 0.00 | 0.00 | 0.00 | 50 | 1015.3 |
| 20260503191053 | 17 | 161 | 6.4 | 19.3 | 0.00 | 0.00 | 0.00 | 48 | 1015.4 |
| 20260503190552 | 17 | 151 | 3.2 | 14.5 | 0.00 | 0.00 | 0.00 | 49 | 1015.4 |
| 20260503190107 | 17 | 158 | 6.4 | 20.9 | 0.00 | 0.00 | 0.00 | 51 | 1015.5 |
| 20260503185552 | 17 | 129 | 3.2 | 24.1 | 0.00 | 0.00 | 0.00 | 47 | 1015.7 |
| 20260503185052 | 17 | 231 | 4.8 | 27.4 | 0.00 | 0.00 | 0.00 | 48 | 1016.0 |
| 20260503184556 | 17 | 150 | 11.3 | 27.4 | 0.00 | 0.00 | 0.00 | 49 | 1015.9 |
| 20260503184053 | 17 | 165 | 8.0 | 24.1 | 0.00 | 0.00 | 0.00 | 49 | 1015.9 |
| 20260503183552 | 17 | 159 | 9.7 | 24.1 | 0.00 | 0.00 | 0.00 | 48 | 1016.0 |
| 20260503183101 | 17 | 269 | 6.4 | 19.3 | 0.00 | 0.00 | 0.00 | 50 | 1016.2 |
| 20260503182553 | 17 | 200 | 4.8 | 19.3 | 0.00 | 0.00 | 0.00 | 49 | 1016.4 |
| 20260503182053 | 17 | 250 | 4.8 | 25.7 | 0.00 | 0.00 | 0.00 | 52 | 1016.6 |
| 20260503181558 | 16 | 146 | 9.7 | 25.7 | 0.00 | 0.00 | 0.00 | 44 | 1016.6 |
| 20260503181053 | 16 | 175 | 9.7 | 25.7 | 0.00 | 0.00 | 0.00 | 47 | 1016.7 |
| 20260503180552 | 16 | 236 | 6.4 | 30.6 | 0.00 | 0.00 | 0.00 | 50 | 1016.8 |
| 20260503180100 | 16 | 156 | 4.8 | 30.6 | 0.00 | 0.00 | 0.00 | 48 | 1017.0 |
| 20260503175552 | 16 | 188 | 8.0 | 30.6 | 0.00 | 0.00 | 0.00 | 49 | 1017.1 |
| 20260503175052 | 16 | 202 | 9.7 | 25.7 | 0.00 | 0.00 | 0.00 | 49 | 1017.0 |
| 20260503174558 | 16 | 0 | 6.4 | 20.9 | 0.00 | 0.00 | 0.00 | 49 | 1017.3 |
| 20260503174055 | 16 | 226 | 9.7 | 22.5 | 0.00 | 0.00 | 0.00 | 47 | 1017.3 |
| 20260503173557 | 16 | 183 | 6.4 | 27.4 | 0.00 | 0.00 | 0.00 | 50 | 1017.5 |
| 20260503173115 | 16 | 187 | 8.0 | 27.4 | 0.00 | 0.00 | 0.00 | 49 | 1017.5 |
| 20260503172552 | 16 | 162 | 6.4 | 20.9 | 0.00 | 0.00 | 0.00 | 51 | 1017.5 |
| 20260503172056 | 16 | 176 | 4.8 | 20.9 | 0.00 | 0.00 | 0.00 | 51 | 1017.5 |
| 20260503171600 | 16 | 165 | 4.8 | 14.5 | 0.00 | 0.00 | 0.00 | 49 | 1017.6 |
| 20260503171052 | 16 | 0 | 1.6 | 14.5 | 0.00 | 0.00 | 0.00 | 52 | 1017.7 |
| 20260503170552 | 15 | 201 | 6.4 | 19.3 | 0.00 | 0.00 | 0.00 | 52 | 1017.7 |
| 20260503150552 | 13 | 211 | 8.0 | 17.7 | 0.00 | 0.00 | 0.00 | 50 | 1019.4 |
| 20260503150111 | 13 | 158 | 3.2 | 16.1 | 0.00 | 0.00 | 0.00 | 52 | 1019.4 |
| 20260503140118 | 10 | 205 | 4.8 | 17.7 | 0.00 | 0.00 | 0.00 | 60 | 1019.5 |
| 20260503131052 | 7 | 176 | 0.0 | 12.9 | 0.00 | 0.00 | 0.00 | 71 | 1019.6 |
| 20260503130552 | 7 | 187 | 6.4 | 12.9 | 0.00 | 0.00 | 0.00 | 71 | 1019.6 |
| 20260503110555 | 0 | 0 | 0.0 | 0.0 | 0.00 | 0.00 | 0.00 | 94 | 1019.1 |
| 20260503110117 | -1 | 0 | 0.0 | 0.0 | 0.00 | 0.00 | 0.00 | 95 | 1018.9 |
| 20260503100105 | 0 | 0 | 0.0 | 0.0 | 0.00 | 0.00 | 0.00 | 94 | 1018.8 |
| 20260503081601 | 0 | 0 | 0.0 | 0.0 | 0.00 | 0.00 | 0.00 | 93 | 1018.7 |